createdAt,value
2023-06-23T00:06:05.317Z,100327.34
2023-06-23T00:09:42.561Z,100316.38
2023-06-23T00:13:08.210Z,100316.84
2023-06-23T00:16:12.272Z,100313.47
2023-06-23T00:19:22.143Z,100320.00
2023-06-23T00:22:26.544Z,100317.69
2023-06-23T00:25:31.119Z,100322.41
2023-06-23T00:28:41.419Z,100320.62
2023-06-23T00:31:46.396Z,100314.22
2023-06-23T00:34:49.911Z,100305.97
2023-06-23T00:37:54.954Z,100315.31
2023-06-23T00:41:07.894Z,100323.19
2023-06-23T00:44:18.046Z,100325.66
2023-06-23T00:47:37.189Z,100328.56
2023-06-23T00:50:44.515Z,100331.16
2023-06-23T00:53:53.929Z,100324.41
2023-06-23T00:56:59.815Z,100321.69
2023-06-23T01:00:13.654Z,100312.88
2023-06-23T01:03:38.660Z,100311.81
2023-06-23T01:07:10.555Z,100315.53
2023-06-23T01:10:28.142Z,100310.78
2023-06-23T01:13:56.692Z,100302.88
2023-06-23T01:17:12.205Z,100304.19
2023-06-23T01:20:41.384Z,100302.16
2023-06-23T01:24:14.063Z,100291.56
2023-06-23T01:28:04.384Z,100285.72
2023-06-23T01:31:15.083Z,100283.69
2023-06-23T01:34:30.111Z,100289.69
2023-06-23T01:38:05.367Z,100288.56
2023-06-23T01:41:15.840Z,100284.59
2023-06-23T01:44:25.881Z,100280.00
2023-06-23T01:47:34.843Z,100279.09
2023-06-23T01:51:04.596Z,100282.78
2023-06-23T01:54:15.008Z,100290.41
2023-06-23T01:57:26.838Z,100288.69
2023-06-23T02:00:33.230Z,100300.94
2023-06-23T02:03:41.436Z,100307.16
2023-06-23T02:06:53.591Z,100321.31
2023-06-23T02:10:20.767Z,100330.12
2023-06-23T02:13:31.135Z,100321.19
2023-06-23T02:17:05.718Z,100325.25
2023-06-23T02:20:18.094Z,100319.88
2023-06-23T02:23:43.813Z,100321.44
2023-06-23T02:26:48.820Z,100314.16
2023-06-23T02:29:56.301Z,100310.19
2023-06-23T02:33:22.510Z,100310.84
2023-06-23T02:36:46.029Z,100316.44
2023-06-23T02:39:57.092Z,100308.56
2023-06-23T02:43:57.411Z,100308.94
2023-06-23T02:47:04.802Z,100305.00
2023-06-23T02:50:14.650Z,100305.53
2023-06-23T02:53:49.774Z,100318.53
2023-06-23T02:56:57.966Z,100306.81
2023-06-23T03:00:07.471Z,100299.34
2023-06-23T03:03:23.056Z,100304.28
2023-06-23T03:06:28.299Z,100299.22
2023-06-23T03:09:46.723Z,100305.06
2023-06-23T03:12:58.273Z,100300.81
2023-06-23T03:16:47.746Z,100300.81
2023-06-23T03:20:08.493Z,100310.44
2023-06-23T03:23:15.530Z,100313.62
2023-06-23T03:26:32.344Z,100309.03
2023-06-23T03:29:49.437Z,100308.81
2023-06-23T03:33:29.388Z,100310.06
2023-06-23T03:36:57.672Z,100308.31
2023-06-23T03:40:09.697Z,100326.31
2023-06-23T03:44:03.983Z,100332.63
2023-06-23T03:47:32.766Z,100347.62
2023-06-23T03:50:41.180Z,100355.66
2023-06-23T03:53:46.842Z,100344.47
2023-06-23T03:57:00.697Z,100340.81
2023-06-23T04:00:13.250Z,100331.06
2023-06-23T04:03:23.198Z,100326.38
2023-06-23T04:06:31.828Z,100329.56
2023-06-23T04:09:47.177Z,100343.28
2023-06-23T04:13:30.722Z,100345.72
2023-06-23T04:16:41.914Z,100352.13
2023-06-23T04:19:57.043Z,100353.94
2023-06-23T04:23:42.378Z,100347.34
2023-06-23T04:26:56.021Z,100334.41
2023-06-23T04:30:04.532Z,100344.78
2023-06-23T04:33:12.194Z,100349.72
2023-06-23T04:36:23.586Z,100353.91
2023-06-23T04:40:00.857Z,100344.78
2023-06-23T04:43:17.441Z,100348.94
2023-06-23T04:46:41.362Z,100348.03
2023-06-23T04:49:57.655Z,100352.31
2023-06-23T04:53:33.031Z,100335.50
2023-06-23T04:57:03.894Z,100335.75
2023-06-23T05:00:32.808Z,100339.13
2023-06-23T05:04:00.165Z,100338.63
2023-06-23T05:07:40.092Z,100342.66
2023-06-23T05:11:15.806Z,100342.50
2023-06-23T05:14:52.824Z,100337.19
2023-06-23T05:18:23.033Z,100334.69
2023-06-23T05:22:00.154Z,100340.16
2023-06-23T05:25:32.654Z,100324.19
2023-06-23T05:29:19.905Z,100326.56
2023-06-23T05:32:49.111Z,100333.84
2023-06-23T05:36:24.861Z,100343.62
2023-06-23T05:39:53.648Z,100334.06
2023-06-23T05:43:22.550Z,100348.91
2023-06-23T05:47:02.761Z,100352.84
2023-06-23T05:50:54.604Z,100329.91
2023-06-23T05:54:41.855Z,100325.00
2023-06-23T05:58:23.360Z,100338.28
2023-06-23T06:02:01.364Z,100335.03
2023-06-23T06:05:40.453Z,100326.78
2023-06-23T06:09:08.586Z,100332.41
2023-06-23T06:12:44.635Z,100329.53
2023-06-23T06:16:23.380Z,100321.41
2023-06-23T06:20:06.952Z,100324.41
2023-06-23T06:23:48.076Z,100325.37
2023-06-23T06:27:31.962Z,100304.91
2023-06-23T06:31:05.484Z,100292.88
2023-06-23T06:34:10.975Z,100295.97
2023-06-23T06:37:39.433Z,100291.00
2023-06-23T06:41:26.494Z,100297.91
2023-06-23T06:44:47.844Z,100290.56
2023-06-23T06:48:14.634Z,100292.25
2023-06-23T06:51:23.549Z,100289.94
2023-06-23T06:54:47.251Z,100283.63
2023-06-23T06:58:47.105Z,100281.41
2023-06-23T07:02:17.481Z,100281.72
2023-06-23T07:05:24.734Z,100284.41
2023-06-23T07:08:28.281Z,100275.75
2023-06-23T07:11:37.132Z,100277.91
2023-06-23T07:15:03.660Z,100272.34
2023-06-23T07:18:17.402Z,100274.75
2023-06-23T07:21:44.905Z,100272.88
2023-06-23T07:29:15.364Z,100280.84
2023-06-23T07:32:41.418Z,100275.31
2023-06-23T07:36:16.633Z,100282.44
2023-06-23T07:39:21.152Z,100277.78
2023-06-23T07:42:28.574Z,100280.63
2023-06-23T07:45:35.056Z,100276.81
2023-06-23T07:48:41.392Z,100287.50
2023-06-23T07:52:06.156Z,100282.34
2023-06-23T07:55:21.745Z,100273.47
2023-06-23T07:58:32.823Z,100272.38
2023-06-23T08:01:58.589Z,100270.00
2023-06-23T08:05:06.933Z,100280.47
2023-06-23T08:08:16.875Z,100278.56
2023-06-23T08:11:25.188Z,100279.09
2023-06-23T08:14:55.488Z,100277.69
2023-06-23T08:18:05.318Z,100274.94
2023-06-23T08:21:17.608Z,100267.00
2023-06-23T08:24:38.063Z,100264.53
2023-06-23T08:27:45.988Z,100266.34
2023-06-23T08:30:51.664Z,100265.06
2023-06-23T08:34:15.211Z,100274.78
2023-06-23T08:37:18.726Z,100270.81
2023-06-23T08:40:42.960Z,100264.69
2023-06-23T08:44:07.148Z,100250.97
2023-06-23T08:47:15.591Z,100256.56
2023-06-23T08:50:39.115Z,100249.75
2023-06-23T08:54:14.559Z,100263.53
2023-06-23T08:57:22.442Z,100264.09
2023-06-23T09:00:45.708Z,100265.41
2023-06-23T09:03:58.421Z,100260.59
2023-06-23T09:07:05.431Z,100260.94
2023-06-23T09:10:32.467Z,100262.47
2023-06-23T09:13:46.459Z,100264.47
2023-06-23T09:17:13.682Z,100271.41
2023-06-23T09:20:37.321Z,100275.81
2023-06-23T09:23:58.549Z,100267.22
2023-06-23T09:27:42.590Z,100264.44
2023-06-23T09:30:52.470Z,100268.28
2023-06-23T09:33:55.705Z,100272.50
2023-06-23T09:37:34.766Z,100268.50
2023-06-23T09:40:39.212Z,100265.94
2023-06-23T09:44:17.673Z,100267.44
2023-06-23T09:47:23.313Z,100270.34
2023-06-23T09:50:31.434Z,100272.53
2023-06-23T09:53:43.046Z,100274.00
2023-06-23T09:56:46.278Z,100281.56
2023-06-23T09:59:54.792Z,100279.03
2023-06-23T10:03:18.494Z,100288.84
2023-06-23T10:06:37.300Z,100279.34
2023-06-23T10:10:22.126Z,100274.91
2023-06-23T10:13:37.585Z,100282.66
2023-06-23T10:16:46.976Z,100274.81
2023-06-23T10:19:52.065Z,100269.88
2023-06-23T10:23:15.804Z,100264.53
2023-06-23T10:26:23.825Z,100267.13
2023-06-23T10:29:31.104Z,100262.31
2023-06-23T10:32:36.229Z,100269.12
2023-06-23T10:35:43.940Z,100260.72
2023-06-23T10:38:48.444Z,100262.88
2023-06-23T10:41:54.211Z,100274.53
2023-06-23T10:44:59.581Z,100263.81
2023-06-23T10:48:02.987Z,100263.28
2023-06-23T10:51:06.283Z,100258.72
2023-06-23T10:54:12.081Z,100260.22
2023-06-23T10:57:17.994Z,100264.09
2023-06-23T11:00:34.482Z,100253.69
2023-06-23T11:03:39.697Z,100243.97
2023-06-23T11:06:43.000Z,100241.31
2023-06-23T11:10:00.038Z,100245.97
2023-06-23T11:13:15.228Z,100238.16
2023-06-23T11:16:39.384Z,100227.25
2023-06-23T11:19:44.410Z,100236.59
2023-06-23T11:23:14.078Z,100223.47
2023-06-23T11:26:32.385Z,100218.44
2023-06-23T11:29:35.433Z,100217.13
2023-06-23T11:32:41.069Z,100216.56
2023-06-23T11:35:44.257Z,100207.09
2023-06-23T11:38:47.943Z,100209.59
2023-06-23T11:41:54.022Z,100220.09
2023-06-23T11:45:01.295Z,100210.16
2023-06-23T11:48:30.713Z,100210.63
2023-06-23T11:51:37.734Z,100188.44
2023-06-23T11:55:01.367Z,100195.69
2023-06-23T11:58:17.219Z,100194.03
2023-06-23T12:01:23.397Z,100190.91
2023-06-23T12:04:49.047Z,100194.22
2023-06-23T12:08:17.555Z,100190.06
2023-06-23T12:11:40.963Z,100187.62
2023-06-23T12:14:45.231Z,100179.91
2023-06-23T12:17:49.427Z,100174.22
2023-06-23T12:20:57.480Z,100178.59
2023-06-23T12:24:15.027Z,100156.97
2023-06-23T12:27:53.816Z,100163.03
2023-06-23T12:31:00.039Z,100160.81
2023-06-23T12:34:03.166Z,100161.25
2023-06-23T12:37:14.529Z,100147.09
2023-06-23T12:40:36.252Z,100148.00
2023-06-23T12:43:44.929Z,100143.13
2023-06-23T12:47:13.071Z,100147.19
2023-06-23T12:50:38.420Z,100145.87
2023-06-23T12:53:55.913Z,100142.13
2023-06-23T12:57:04.741Z,100140.16
2023-06-23T13:00:29.792Z,100138.94
2023-06-23T13:03:57.940Z,100134.78
2023-06-23T13:07:02.207Z,100124.31
2023-06-23T13:10:12.064Z,100122.59
2023-06-23T13:13:15.472Z,100136.81
2023-06-23T13:16:19.370Z,100133.78
2023-06-23T13:19:28.039Z,100139.84
2023-06-23T13:22:52.632Z,100134.31
2023-06-23T13:25:55.684Z,100130.12
2023-06-23T13:29:04.158Z,100135.09
2023-06-23T13:32:14.548Z,100130.72
2023-06-23T13:35:26.494Z,100129.16
2023-06-23T13:38:30.153Z,100127.94
2023-06-23T13:41:33.551Z,100139.31
2023-06-23T13:44:56.955Z,100128.56
2023-06-23T13:48:00.278Z,100140.38
2023-06-23T13:51:03.665Z,100145.41
2023-06-23T13:54:08.008Z,100146.44
2023-06-23T13:57:14.144Z,100153.44
2023-06-23T14:00:44.549Z,100146.31
2023-06-23T14:04:08.411Z,100144.38
2023-06-23T14:07:20.922Z,100152.37
2023-06-23T14:10:25.246Z,100149.16
2023-06-23T14:13:31.596Z,100144.66
2023-06-23T14:16:38.395Z,100149.94
2023-06-23T14:19:46.259Z,100150.66
2023-06-23T14:22:51.775Z,100149.97
2023-06-23T14:25:56.824Z,100156.53
2023-06-23T14:29:00.158Z,100145.37
2023-06-23T14:32:54.430Z,100166.44
2023-06-23T14:36:09.010Z,100163.00
2023-06-23T14:39:18.232Z,100159.16
2023-06-23T14:42:33.979Z,100151.12
2023-06-23T14:46:08.100Z,100144.72
2023-06-23T14:49:14.954Z,100157.16
2023-06-23T14:53:15.681Z,100148.91
2023-06-23T15:02:09.981Z,100142.19
2023-06-23T15:13:03.322Z,100117.41
2023-06-23T15:13:44.335Z,100109.88
2023-06-23T15:21:54.276Z,100114.97
2023-06-23T15:30:02.196Z,100103.12
2023-06-23T15:34:51.467Z,100098.31
2023-06-23T15:41:49.379Z,100107.44
2023-06-23T15:46:43.191Z,100110.69
2023-06-23T15:49:31.502Z,100107.12
2023-06-23T15:53:10.780Z,100110.66
2023-06-23T15:57:21.933Z,100128.25
2023-06-23T16:00:51.300Z,100126.47
2023-06-23T16:04:35.727Z,100130.19
2023-06-23T16:07:56.236Z,100140.91
2023-06-23T16:11:21.944Z,100135.03
2023-06-23T16:23:36.268Z,100156.28
2023-06-23T16:54:03.862Z,100192.13
2023-06-23T17:16:44.043Z,100236.50
2023-06-23T18:12:33.733Z,100242.03
2023-06-23T18:16:13.919Z,100227.53
2023-06-23T18:19:49.359Z,100248.62
2023-06-23T18:23:24.581Z,100246.00
2023-06-23T18:27:20.407Z,100245.56
2023-06-23T18:31:00.109Z,100228.28
2023-06-23T18:34:58.069Z,100248.81
2023-06-23T18:39:05.357Z,100267.94
2023-06-23T18:43:01.403Z,100272.50
2023-06-23T18:46:26.544Z,100287.87
2023-06-23T18:49:50.232Z,100304.41
2023-06-23T18:53:40.966Z,100328.25
2023-06-23T18:57:24.568Z,100367.25
2023-06-23T19:00:56.355Z,100384.38
2023-06-23T19:04:20.366Z,100369.09
2023-06-23T19:07:58.398Z,100364.78
2023-06-23T19:11:39.792Z,100371.03
2023-06-23T19:15:20.706Z,100352.41
2023-06-23T19:18:48.142Z,100387.13
2023-06-23T19:22:15.781Z,100405.56
2023-06-23T19:25:55.004Z,100422.09
2023-06-23T19:29:34.142Z,100429.97
2023-06-23T19:33:25.708Z,100472.66
2023-06-23T19:36:53.684Z,100533.62
2023-06-23T19:40:27.285Z,100600.34
2023-06-23T19:43:38.692Z,100587.81
2023-06-23T19:47:11.508Z,100569.78
2023-06-23T19:50:45.726Z,100553.88
2023-06-23T19:54:29.182Z,100593.91
2023-06-23T19:57:58.813Z,100671.53
2023-06-23T20:01:33.721Z,100698.88
2023-06-23T20:05:01.781Z,100726.09
2023-06-23T20:08:05.712Z,100775.63
2023-06-23T20:11:50.684Z,100769.09
2023-06-23T20:15:15.625Z,100714.69
2023-06-23T20:18:32.938Z,100666.59
2023-06-23T20:22:09.782Z,100671.03
2023-06-23T20:25:29.539Z,100691.16
2023-06-23T20:29:03.030Z,100699.13
2023-06-23T20:32:24.350Z,100693.00
2023-06-23T20:35:52.135Z,100675.19
2023-06-23T20:39:29.217Z,100676.47
2023-06-23T20:43:01.289Z,100699.41
2023-06-23T20:46:32.214Z,100700.16
2023-06-23T20:50:05.748Z,100685.47
2023-06-23T20:53:40.318Z,100640.63
2023-06-23T20:57:16.693Z,100610.72
2023-06-23T21:00:56.280Z,100569.81
2023-06-23T21:04:22.318Z,100571.19
2023-06-23T21:07:50.303Z,100537.00
2023-06-23T21:10:53.827Z,100499.16
2023-06-23T21:14:06.312Z,100477.81
2023-06-23T21:17:17.560Z,100468.50
2023-06-23T21:20:29.043Z,100447.56
2023-06-23T21:23:32.733Z,100435.16
2023-06-23T21:26:37.659Z,100433.19
2023-06-23T21:29:43.322Z,100419.00
2023-06-23T21:33:07.360Z,100377.53
2023-06-23T21:36:19.835Z,100347.69
2023-06-23T21:39:30.881Z,100309.72
2023-06-23T21:42:36.878Z,100280.25
2023-06-23T21:45:48.098Z,100294.22
2023-06-23T21:49:10.714Z,100333.72
2023-06-23T21:52:14.098Z,100352.16
2023-06-23T21:55:19.553Z,100366.03
2023-06-23T21:58:22.605Z,100386.66
2023-06-23T22:01:26.545Z,100429.91
2023-06-23T22:04:32.193Z,100468.38
2023-06-23T22:07:37.466Z,100508.47
2023-06-23T22:10:41.161Z,100510.66
2023-06-23T22:14:03.640Z,100516.00
2023-06-23T22:17:07.142Z,100531.09
2023-06-23T22:20:14.397Z,100538.84
2023-06-23T22:23:24.587Z,100550.16
2023-06-23T22:26:47.324Z,100549.78
2023-06-23T22:29:55.768Z,100563.78
2023-06-23T22:33:05.719Z,100577.38
2023-06-23T22:36:13.198Z,100585.44
2023-06-23T22:39:16.226Z,100590.97
2023-06-23T22:42:23.676Z,100569.75
2023-06-23T22:45:43.522Z,100548.22
2023-06-23T22:48:58.460Z,100533.03
2023-06-23T22:52:02.275Z,100508.91
2023-06-23T22:55:11.123Z,100508.72
2023-06-23T22:58:14.298Z,100511.22
2023-06-23T23:01:44.210Z,100538.09
2023-06-23T23:04:50.126Z,100548.34
2023-06-23T23:08:17.288Z,100555.69
2023-06-23T23:11:25.381Z,100561.94
2023-06-23T23:14:30.961Z,100566.50
2023-06-23T23:17:37.035Z,100561.94
2023-06-23T23:20:44.537Z,100567.09
2023-06-23T23:23:47.561Z,100577.31
2023-06-23T23:26:52.793Z,100570.06
2023-06-23T23:30:00.904Z,100562.03
2023-06-23T23:33:08.381Z,100564.19
2023-06-23T23:36:15.067Z,100560.16
2023-06-23T23:39:19.109Z,100571.44
2023-06-23T23:42:46.983Z,100569.66
2023-06-23T23:45:50.265Z,100565.87
2023-06-23T23:48:53.045Z,100580.47
2023-06-23T23:51:58.188Z,100600.25
2023-06-23T23:55:01.161Z,100598.47
2023-06-23T23:58:31.017Z,100611.97
